Pipe Spring National Monumen, Arizona
Current Conditions -  °F | °C
As of 5:55 PM on Monday 26 Jan 2015 (Local Time) from KAZC Reporting Station
Clear Clear  
Wind Chill: 53°   Ceiling: Unl
Heat Index: 53°   Visibility: 10mi
Dew Point: 26°   Wind: 9mph
Humidity: 34%   Direction: 80°E
Pressure: 30.22"   Gusts: NA
Location:  36.9484°N, 112.529°W
Report Text: KAZC 270055Z AUTO 08008KT 10SM CLR 12/M04 A3022 RMK AO2 T01191036
Loading
Personal Weather Stations






























Interactive Weather Map New forecast layout! Learn more

10-Day Weather Forecast

Advertisements
Track Severe Weather on mobile